Time;durP1;ratioP1;P1;durP2;ratioP2;P2;SDS_P1;SDS_P2;PMS_P1;PMS_P2;Temp;Humidity;BMP_temperature;BMP_pressure;BME280_temperature;BME280_humidity;BME280_pressure;Samples;Min_cycle;Max_cycle;Signal;HPM_P1;HPM_P2
2021/05/23 00:02:14;;;;;;;10.50;3.40;;;461.20;2304.00;;;;;;5095019;28;20469;-81
2021/05/23 00:04:40;;;;;;;7.63;3.63;;;461.10;2329.60;;;;;;5076847;28;20040;-83
2021/05/23 00:07:08;;;;;;;5.85;3.33;;;461.20;2304.00;;;;;;5073951;28;20028;-83
2021/05/23 00:09:35;;;;;;;8.50;3.20;;;461.10;2304.00;;;;;;5078069;28;20028;-82
2021/05/23 00:12:01;;;;;;;5.68;3.80;;;461.00;2355.20;;;;;;5077829;28;20142;-84
2021/05/23 00:14:27;;;;;;;8.80;3.58;;;461.10;2355.20;;;;;;5077166;28;20063;-84
2021/05/23 00:16:53;;;;;;;7.07;3.55;;;461.00;2304.00;;;;;;5077039;28;20051;-84
2021/05/23 00:19:18;;;;;;;6.13;3.05;;;461.00;2304.00;;;;;;5076775;28;20024;-84
2021/05/23 00:21:45;;;;;;;4.40;2.83;;;461.10;2278.40;;;;;;5075490;28;20024;-82
2021/05/23 00:24:11;;;;;;;4.63;2.67;;;461.10;2227.20;;;;;;5076940;28;20107;-81
2021/05/23 00:26:37;;;;;;;6.55;3.55;;;461.10;2176.00;;;;;;5076848;28;20107;-83
2021/05/23 00:29:07;;;;;;;4.90;2.80;;;461.10;2124.80;;;;;;5074422;28;20500;-83
2021/05/23 00:31:34;;;;;;;5.15;3.25;;;461.20;2124.80;;;;;;5075474;28;20035;-84
2021/05/23 00:34:00;;;;;;;7.50;3.30;;;461.20;2150.40;;;;;;5063762;28;20546;-85
2021/05/23 00:36:26;;;;;;;7.88;3.15;;;461.10;2176.00;;;;;;5075240;28;20044;-85
2021/05/23 00:38:52;;;;;;;7.43;2.90;;;461.10;2201.60;;;;;;5076552;28;20020;-82
2021/05/23 00:41:18;;;;;;;7.28;2.85;;;461.10;2150.40;;;;;;5095167;28;20093;-82
2021/05/23 00:43:45;;;;;;;6.88;3.08;;;461.10;2150.40;;;;;;5078765;28;20039;-84
2021/05/23 00:46:11;;;;;;;10.98;3.47;;;461.10;2124.80;;;;;;5112381;28;20030;-83
2021/05/23 00:48:36;;;;;;;8.63;3.65;;;461.10;2150.40;;;;;;5097254;28;20016;-85
2021/05/23 00:51:02;;;;;;;8.27;2.72;;;461.00;2176.00;;;;;;5094302;28;20103;-85
2021/05/23 00:53:29;;;;;;;9.85;3.22;;;460.90;2150.40;;;;;;5114513;28;20098;-83
2021/05/23 00:55:54;;;;;;;7.43;2.45;;;460.80;2124.80;;;;;;5109142;28;20030;-81
2021/05/23 00:58:20;;;;;;;6.18;3.40;;;436.10;2124.80;;;;;;5095558;28;20020;-84
2021/05/23 01:00:55;;;;;;;7.93;2.95;;;436.10;2150.40;;;;;;5097404;28;20031;-83
2021/05/23 01:03:30;;;;;;;5.95;2.60;;;436.10;2150.40;;;;;;5103552;28;20103;-82
2021/05/23 01:05:56;;;;;;;5.63;2.80;;;436.10;2124.80;;;;;;5138371;27;20004;-82
2021/05/23 01:08:23;;;;;;;5.22;2.40;;;460.80;2150.40;;;;;;5122190;28;20042;-82
2021/05/23 01:11:00;;;;;;;5.85;2.40;;;460.90;2124.80;;;;;;5119669;28;20099;-83
2021/05/23 01:13:35;;;;;;;9.38;2.85;;;460.90;2150.40;;;;;;5100106;28;20054;-80
2021/05/23 01:16:09;;;;;;;3.58;2.15;;;460.90;2150.40;;;;;;5098777;28;20028;-86
2021/05/23 01:18:53;;;;;;;4.68;1.85;;;461.00;2124.80;;;;;;5089113;28;20464;-84
2021/05/23 01:21:21;;;;;;;7.30;3.08;;;460.90;2124.80;;;;;;5095109;28;20024;-82
2021/05/23 01:24:12;;;;;;;5.43;2.70;;;460.90;2150.40;;;;;;5094108;28;20074;-85
2021/05/23 01:26:44;;;;;;;6.43;2.60;;;460.80;2124.80;;;;;;5094012;28;20051;-85
2021/05/23 01:29:11;;;;;;;7.43;2.83;;;436.10;2150.40;;;;;;5094208;28;20430;-82
2021/05/23 01:31:39;;;;;;;6.70;2.72;;;435.90;2201.60;;;;;;5093593;28;20070;-83
2021/05/23 01:34:06;;;;;;;4.40;2.83;;;435.80;2201.60;;;;;;5096718;28;20407;-82
2021/05/23 01:36:36;;;;;;;8.45;2.33;;;435.90;2176.00;;;;;;5093854;28;20032;-86
2021/05/23 01:39:05;;;;;;;6.15;2.28;;;436.10;2124.80;;;;;;5094653;28;20020;-82
2021/05/23 01:41:32;;;;;;;3.53;2.30;;;460.80;2124.80;;;;;;5096233;28;20023;-82
2021/05/23 01:43:59;;;;;;;4.47;2.72;;;460.80;2124.80;;;;;;5088157;28;20118;-83
2021/05/23 01:46:25;;;;;;;7.15;2.40;;;460.90;2124.80;;;;;;5074663;28;20520;-84
2021/05/23 01:48:51;;;;;;;7.93;2.97;;;460.90;2150.40;;;;;;5092465;28;20028;-83
2021/05/23 01:51:17;;;;;;;7.50;2.75;;;461.00;2124.80;;;;;;5076797;28;20023;-83
2021/05/23 01:53:43;;;;;;;5.13;2.35;;;461.00;2150.40;;;;;;5077791;28;20053;-85
2021/05/23 01:56:09;;;;;;;7.07;3.13;;;461.00;2176.00;;;;;;5072956;28;20024;-83
2021/05/23 01:58:36;;;;;;;5.53;2.30;;;461.00;2176.00;;;;;;5073717;28;20429;-85
2021/05/23 02:01:02;;;;;;;5.35;2.72;;;461.00;2201.60;;;;;;5082503;28;20027;-82
2021/05/23 02:03:28;;;;;;;5.53;3.10;;;460.90;2201.60;;;;;;5078306;28;20103;-83
2021/05/23 02:05:57;;;;;;;4.13;2.60;;;461.00;2201.60;;;;;;5076986;28;20055;-82
2021/05/23 02:08:25;;;;;;;6.35;3.42;;;461.00;2227.20;;;;;;5076807;28;20078;-82
2021/05/23 02:10:53;;;;;;;6.25;3.35;;;460.90;2227.20;;;;;;5078036;28;20423;-82
2021/05/23 02:13:20;;;;;;;4.43;2.90;;;461.00;2227.20;;;;;;5076432;28;20426;-83
2021/05/23 02:15:46;;;;;;;5.55;2.92;;;460.80;2278.40;;;;;;5069636;28;20032;-85
2021/05/23 02:18:12;;;;;;;7.13;2.97;;;436.10;2252.80;;;;;;5082962;28;20115;-83
2021/05/23 02:20:39;;;;;;;6.32;2.78;;;436.00;2252.80;;;;;;5075940;28;20544;-84
2021/05/23 02:23:06;;;;;;;4.88;3.22;;;436.10;2252.80;;;;;;5075087;28;20012;-82
2021/05/23 02:25:34;;;;;;;7.55;3.35;;;436.10;2227.20;;;;;;5076526;28;20032;-84
2021/05/23 02:28:07;;;;;;;4.90;3.40;;;460.80;2227.20;;;;;;5073210;28;20046;-84
2021/05/23 02:30:46;;;;;;;5.63;3.15;;;436.10;2227.20;;;;;;5075523;28;20024;-83
2021/05/23 02:33:14;;;;;;;3.50;2.55;;;436.10;2227.20;;;;;;5070403;28;20028;-82
2021/05/23 02:35:43;;;;;;;4.97;3.10;;;436.10;2201.60;;;;;;5077317;28;20036;-85
2021/05/23 02:38:10;;;;;;;4.68;2.80;;;436.10;2227.20;;;;;;5072361;28;20024;-84
2021/05/23 02:40:37;;;;;;;5.38;2.80;;;436.00;2252.80;;;;;;5076228;28;20019;-82
2021/05/23 02:43:05;;;;;;;6.65;3.50;;;436.00;2252.80;;;;;;5070618;28;20016;-83
2021/05/23 02:45:32;;;;;;;5.00;2.70;;;436.00;2252.80;;;;;;5076243;28;20048;-85
2021/05/23 02:47:59;;;;;;;6.53;3.78;;;435.80;2252.80;;;;;;5081990;28;20016;-87
2021/05/23 02:50:31;;;;;;;4.97;2.80;;;435.90;2278.40;;;;;;5079319;28;20049;-84
2021/05/23 02:52:57;;;;;;;7.00;2.80;;;435.80;2329.60;;;;;;5077345;28;20477;-88
2021/05/23 02:55:24;;;;;;;4.75;2.97;;;435.50;2278.40;;;;;;5070143;28;20051;-86
2021/05/23 02:57:51;;;;;;;5.15;3.38;;;435.60;2252.80;;;;;;5075903;28;20484;-84
2021/05/23 03:00:19;;;;;;;5.32;3.45;;;435.60;2227.20;;;;;;5074604;28;20028;-87
2021/05/23 03:02:46;;;;;;;4.40;2.80;;;435.80;2201.60;;;;;;5081034;28;20135;-87
2021/05/23 03:05:14;;;;;;;5.10;2.88;;;435.70;2201.60;;;;;;5073760;28;20052;-84
2021/05/23 03:07:42;;;;;;;5.53;2.95;;;435.70;2201.60;;;;;;5075879;28;20110;-84
2021/05/23 03:10:13;;;;;;;6.40;3.42;;;435.80;2201.60;;;;;;5061563;28;20028;-87
2021/05/23 03:12:40;;;;;;;9.15;3.15;;;435.70;2201.60;;;;;;5075277;28;20028;-86
2021/05/23 03:15:08;;;;;;;7.13;3.70;;;435.60;2201.60;;;;;;5077659;28;20027;-85
2021/05/23 03:17:34;;;;;;;5.85;3.03;;;435.60;2176.00;;;;;;5095480;28;20071;-85
2021/05/23 03:20:00;;;;;;;4.90;2.78;;;435.70;2176.00;;;;;;5071380;28;20481;-85
2021/05/23 03:22:25;;;;;;;8.77;3.55;;;435.80;2176.00;;;;;;5079873;28;20024;-86
2021/05/23 03:24:51;;;;;;;8.07;2.75;;;435.90;2150.40;;;;;;5072940;28;20044;-84
2021/05/23 03:27:17;;;;;;;5.45;3.33;;;435.90;2124.80;;;;;;5077127;28;20012;-86
2021/05/23 03:29:43;;;;;;;5.15;3.42;;;436.00;2124.80;;;;;;5075486;28;20036;-88
2021/05/23 03:32:08;;;;;;;6.03;3.00;;;436.10;2150.40;;;;;;5076065;28;20065;-87
2021/05/23 03:34:34;;;;;;;6.53;2.88;;;436.10;2150.40;;;;;;5071393;28;20031;-85
2021/05/23 03:37:00;;;;;;;7.07;2.92;;;436.10;2150.40;;;;;;5094680;28;20452;-83
2021/05/23 03:39:26;;;;;;;7.60;2.72;;;436.10;2150.40;;;;;;5071660;28;20111;-84
2021/05/23 03:41:51;;;;;;;5.80;2.88;;;436.00;2201.60;;;;;;5077267;28;20136;-84
2021/05/23 03:44:17;;;;;;;7.38;2.78;;;435.90;2201.60;;;;;;5072961;28;20047;-84
2021/05/23 03:46:43;;;;;;;4.85;2.60;;;435.60;2201.60;;;;;;5076489;28;20024;-86
2021/05/23 03:49:09;;;;;;;8.80;2.72;;;435.60;2201.60;;;;;;5077840;28;20439;-86
2021/05/23 03:51:34;;;;;;;7.05;2.42;;;435.60;2227.20;;;;;;5073439;28;20420;-83
2021/05/23 03:54:00;;;;;;;5.60;2.90;;;435.90;2124.80;;;;;;5072857;28;20047;-85
2021/05/23 03:56:26;;;;;;;4.93;2.72;;;436.00;2073.60;;;;;;5074516;28;20062;-86
2021/05/23 03:58:52;;;;;;;4.72;2.90;;;436.10;2073.60;;;;;;5087984;28;20028;-84
2021/05/23 04:01:17;;;;;;;4.70;2.72;;;460.80;2099.20;;;;;;5071873;28;20422;-86
2021/05/23 04:03:43;;;;;;;6.78;2.60;;;460.80;2099.20;;;;;;5079737;28;20035;-84
2021/05/23 04:06:09;;;;;;;5.97;2.92;;;460.80;2099.20;;;;;;5096650;28;20020;-84
2021/05/23 04:08:35;;;;;;;4.28;2.20;;;460.90;2099.20;;;;;;5096310;28;20118;-85
2021/05/23 04:11:10;;;;;;;7.68;3.22;;;460.90;2099.20;;;;;;5113972;27;20453;-84
2021/05/23 04:13:38;;;;;;;5.30;2.42;;;460.80;2099.20;;;;;;5109926;27;20549;-85
2021/05/23 04:16:04;;;;;;;4.07;2.67;;;460.90;2099.20;;;;;;5098678;28;20047;-85
2021/05/23 04:18:30;;;;;;;6.25;3.28;;;460.90;2099.20;;;;;;5098494;28;20069;-85
2021/05/23 04:20:56;;;;;;;6.55;3.03;;;460.90;2099.20;;;;;;5097167;28;20042;-85
2021/05/23 04:23:23;;;;;;;7.03;3.47;;;460.90;2099.20;;;;;;5099198;27;20377;-85
2021/05/23 04:25:50;;;;;;;8.30;2.90;;;460.90;2099.20;;;;;;5099747;28;20571;-84
2021/05/23 04:28:16;;;;;;;6.53;2.85;;;460.90;2099.20;;;;;;5103502;27;20036;-85
2021/05/23 04:30:42;;;;;;;6.60;2.65;;;461.00;2073.60;;;;;;5093113;28;20115;-86
2021/05/23 04:33:07;;;;;;;6.55;2.78;;;461.00;2073.60;;;;;;5115644;28;20023;-86
2021/05/23 04:35:33;;;;;;;7.32;3.13;;;461.10;2099.20;;;;;;5095062;28;20033;-86
2021/05/23 04:38:01;;;;;;;6.15;3.03;;;461.10;2099.20;;;;;;5097148;28;20030;-86
2021/05/23 04:40:27;;;;;;;6.68;3.35;;;461.10;2099.20;;;;;;5094529;28;20012;-84
2021/05/23 04:42:53;;;;;;;7.70;2.88;;;461.10;2099.20;;;;;;5099491;28;20032;-86
2021/05/23 04:45:18;;;;;;;5.05;2.75;;;461.20;2048.00;;;;;;5074200;28;20085;-84
2021/05/23 04:47:44;;;;;;;6.43;2.75;;;461.20;2073.60;;;;;;5076446;28;20431;-84
2021/05/23 04:50:11;;;;;;;5.43;3.15;;;461.20;2099.20;;;;;;5074052;28;20449;-87
2021/05/23 04:52:36;;;;;;;5.22;3.25;;;461.20;2048.00;;;;;;5070932;28;20077;-87
2021/05/23 04:55:04;;;;;;;8.77;3.97;;;461.40;2048.00;;;;;;5070516;28;20032;-86
2021/05/23 04:57:30;;;;;;;6.25;3.20;;;461.40;2048.00;;;;;;5065621;28;20032;-79
2021/05/23 04:59:56;;;;;;;6.45;2.83;;;461.40;2099.20;;;;;;5065329;28;20020;-81
2021/05/23 05:02:22;;;;;;;8.55;4.00;;;461.40;2099.20;;;;;;5071641;28;20028;-81
2021/05/23 05:04:48;;;;;;;8.68;3.30;;;461.40;2124.80;;;;;;5073987;28;20035;-84
2021/05/23 05:07:14;;;;;;;7.60;2.97;;;461.50;2099.20;;;;;;5072912;28;20033;-82
2021/05/23 05:09:40;;;;;;;8.77;3.45;;;461.50;2048.00;;;;;;5081601;28;20049;-82
2021/05/23 05:12:07;;;;;;;5.10;3.40;;;461.50;2048.00;;;;;;5079756;28;20035;-84
2021/05/23 05:14:33;;;;;;;7.38;3.50;;;461.50;2048.00;;;;;;5088472;28;20005;-82
2021/05/23 05:16:58;;;;;;;4.50;2.95;;;461.50;2048.00;;;;;;5095400;28;20029;-82
2021/05/23 05:19:24;;;;;;;11.52;3.53;;;461.50;2048.00;;;;;;5085444;28;20115;-86
2021/05/23 05:21:50;;;;;;;6.22;3.20;;;461.70;2048.00;;;;;;5066068;28;20034;-85
2021/05/23 05:24:16;;;;;;;5.57;3.47;;;461.60;2048.00;;;;;;5070023;28;20060;-85
2021/05/23 05:26:42;;;;;;;5.90;3.58;;;461.70;2022.40;;;;;;5072980;28;20035;-83
2021/05/23 05:29:07;;;;;;;7.60;3.33;;;461.70;1996.80;;;;;;5067648;28;20034;-92
2021/05/23 05:31:34;;;;;;;6.53;3.55;;;486.40;1996.80;;;;;;5072162;28;20439;-84
2021/05/23 05:34:00;;;;;;;7.85;3.65;;;486.40;1971.20;;;;;;5076064;28;20103;-84
2021/05/23 05:36:26;;;;;;;6.53;3.15;;;486.50;2022.40;;;;;;5072379;28;20127;-89
2021/05/23 05:38:52;;;;;;;4.95;3.13;;;486.70;1920.00;;;;;;5076129;28;20038;-89
2021/05/23 05:41:19;;;;;;;6.22;3.10;;;486.80;1945.60;;;;;;5070682;28;20024;-82
2021/05/23 05:43:49;;;;;;;7.10;3.40;;;486.80;1920.00;;;;;;5070969;28;20036;-89
2021/05/23 05:46:16;;;;;;;12.23;3.33;;;487.00;1945.60;;;;;;5110627;28;20020;-82
2021/05/23 05:48:42;;;;;;;3.70;2.53;;;487.10;1920.00;;;;;;5111874;28;20461;-91
2021/05/23 05:51:08;;;;;;;9.00;3.03;;;487.10;1894.40;;;;;;5112254;28;20153;-81
2021/05/23 05:53:34;;;;;;;6.47;2.45;;;487.10;1920.00;;;;;;5104229;28;20031;-87
2021/05/23 05:56:01;;;;;;;7.50;3.42;;;487.20;1843.20;;;;;;5089384;28;20062;-83
2021/05/23 05:58:27;;;;;;;5.68;3.20;;;512.10;1843.20;;;;;;5096464;28;20050;-86
2021/05/23 06:00:53;;;;;;;6.75;3.10;;;487.30;1894.40;;;;;;5096090;28;20470;-80
2021/05/23 06:03:19;;;;;;;6.60;2.80;;;512.00;1920.00;;;;;;5088642;28;20016;-89
2021/05/23 06:05:44;;;;;;;4.30;2.30;;;512.10;1868.80;;;;;;5095998;28;20019;-81
2021/05/23 06:08:10;;;;;;;4.57;2.22;;;512.30;1843.20;;;;;;5087004;28;20024;-80
2021/05/23 06:10:37;;;;;;;5.60;2.33;;;512.40;1817.60;;;;;;5086054;28;20457;-80
2021/05/23 06:13:04;;;;;;;4.05;2.10;;;512.50;1766.40;;;;;;5089362;28;20114;-80
2021/05/23 06:15:30;;;;;;;9.05;2.80;;;512.60;1792.00;;;;;;5088265;28;20042;-82
2021/05/23 06:17:56;;;;;;;4.45;2.35;;;512.70;1817.60;;;;;;5084575;28;20116;-89
2021/05/23 06:20:22;;;;;;;6.35;2.40;;;512.80;1766.40;;;;;;5095587;28;20058;-85
2021/05/23 06:22:48;;;;;;;3.65;2.10;;;512.90;1843.20;;;;;;5088283;28;20028;-87
2021/05/23 06:25:14;;;;;;;4.68;2.10;;;537.60;1766.40;;;;;;5092534;28;20038;-89
2021/05/23 06:27:39;;;;;;;4.22;2.38;;;537.80;1766.40;;;;;;5085924;28;20031;-92
2021/05/23 06:30:06;;;;;;;4.03;2.40;;;537.80;1817.60;;;;;;5083864;28;20085;-86
2021/05/23 06:32:32;;;;;;;17.63;4.43;;;537.90;1740.80;;;;;;5086751;28;20020;-88
2021/05/23 06:34:58;;;;;;;4.57;2.22;;;538.00;1740.80;;;;;;5092754;28;20081;-89
2021/05/23 06:37:23;;;;;;;6.80;2.30;;;538.10;1664.00;;;;;;5095928;28;20035;-85
2021/05/23 06:39:49;;;;;;;4.03;1.88;;;538.10;1689.60;;;;;;5102615;28;20127;-86
2021/05/23 06:42:15;;;;;;;4.55;2.20;;;538.20;1689.60;;;;;;5095200;28;20024;-81
2021/05/23 06:44:41;;;;;;;5.72;2.20;;;538.30;1664.00;;;;;;5087915;28;20082;-87
2021/05/23 06:47:07;;;;;;;4.50;2.20;;;538.40;1715.20;;;;;;5088364;28;20019;-85
2021/05/23 06:49:33;;;;;;;8.13;2.75;;;538.50;1664.00;;;;;;5095211;28;20026;-90
2021/05/23 06:51:59;;;;;;;4.55;2.20;;;563.20;1715.20;;;;;;5095131;28;20030;-87
2021/05/23 06:54:25;;;;;;;4.97;2.00;;;563.30;1715.20;;;;;;5079732;28;20055;-80
2021/05/23 06:56:51;;;;;;;5.45;2.35;;;563.40;1664.00;;;;;;5094451;28;20493;-81
2021/05/23 06:59:17;;;;;;;6.47;2.63;;;563.50;1638.40;;;;;;5093565;28;20042;-85
2021/05/23 07:01:43;;;;;;;9.00;2.05;;;563.60;1689.60;;;;;;5112235;28;20037;-89
2021/05/23 07:04:08;;;;;;;5.45;1.92;;;563.80;1638.40;;;;;;5080903;28;20020;-89
2021/05/23 07:06:34;;;;;;;3.85;1.65;;;564.00;1638.40;;;;;;5087509;28;20058;-81
2021/05/23 07:09:00;;;;;;;2.35;1.50;;;588.80;1612.80;;;;;;5085670;28;20028;-81
2021/05/23 07:11:26;;;;;;;5.10;2.17;;;564.10;1510.40;;;;;;5108893;28;20027;-84
2021/05/23 07:13:52;;;;;;;7.78;2.25;;;564.10;1561.60;;;;;;5112339;28;20019;-82
2021/05/23 07:16:18;;;;;;;6.75;2.88;;;564.10;1612.80;;;;;;5112033;28;20024;-87
2021/05/23 07:18:44;;;;;;;3.15;1.65;;;564.00;1587.20;;;;;;5113344;28;20032;-85
2021/05/23 07:21:10;;;;;;;3.15;1.52;;;563.90;1612.80;;;;;;5112286;28;20023;-85
2021/05/23 07:23:36;;;;;;;4.75;2.00;;;563.80;1587.20;;;;;;5107090;28;20024;-89
2021/05/23 07:26:01;;;;;;;3.45;1.80;;;563.60;1587.20;;;;;;5098700;28;20028;-84
2021/05/23 07:28:27;;;;;;;5.70;1.92;;;563.80;1536.00;;;;;;5110213;28;20020;-90
2021/05/23 07:30:53;;;;;;;7.50;2.47;;;564.00;1587.20;;;;;;5102603;28;20027;-87
2021/05/23 07:33:19;;;;;;;7.60;2.63;;;564.10;1561.60;;;;;;5113459;28;20024;-88
2021/05/23 07:35:45;;;;;;;5.80;2.22;;;588.80;1536.00;;;;;;5113383;28;20040;-87
2021/05/23 07:38:11;;;;;;;5.15;1.75;;;589.00;1536.00;;;;;;5113386;28;20463;-84
2021/05/23 07:40:37;;;;;;;3.53;1.98;;;589.10;1536.00;;;;;;5112331;28;20106;-87
2021/05/23 07:43:03;;;;;;;8.57;2.05;;;589.10;1510.40;;;;;;5112259;28;20024;-88
2021/05/23 07:45:30;;;;;;;4.85;1.88;;;589.20;1510.40;;;;;;5114055;28;20082;-87
2021/05/23 07:47:56;;;;;;;3.92;1.90;;;589.30;1510.40;;;;;;5110421;28;20028;-84
2021/05/23 07:50:23;;;;;;;3.47;1.77;;;589.40;1510.40;;;;;;5111514;28;20027;-84
2021/05/23 07:52:49;;;;;;;4.82;1.83;;;589.60;1382.40;;;;;;5116097;28;20027;-85
2021/05/23 07:55:15;;;;;;;7.22;1.73;;;589.70;1484.80;;;;;;5114996;28;20177;-84
2021/05/23 07:57:40;;;;;;;4.45;2.00;;;614.50;1510.40;;;;;;5114408;28;20031;-84
2021/05/23 08:00:08;;;;;;;3.38;2.10;;;589.70;1433.60;;;;;;5115789;28;20476;-90
2021/05/23 08:02:34;;;;;;;7.00;2.00;;;614.40;1459.20;;;;;;5116794;28;20388;-85
2021/05/23 08:05:00;;;;;;;3.45;1.80;;;614.50;1459.20;;;;;;5104674;28;20032;-87
2021/05/23 08:07:26;;;;;;;4.45;1.65;;;614.50;1433.60;;;;;;5107896;28;20026;-84
2021/05/23 08:09:51;;;;;;;3.72;1.85;;;589.70;1408.00;;;;;;5101931;28;20119;-87
2021/05/23 08:12:18;;;;;;;4.28;1.80;;;614.40;1356.80;;;;;;5106575;28;20019;-88
2021/05/23 08:14:45;;;;;;;5.75;1.95;;;589.70;1331.20;;;;;;5115278;28;20027;-88
2021/05/23 08:17:11;;;;;;;3.88;2.05;;;589.60;1382.40;;;;;;5115629;28;20039;-88
2021/05/23 08:19:37;;;;;;;7.72;2.67;;;614.50;1433.60;;;;;;5114626;28;20015;-85
2021/05/23 08:22:03;;;;;;;3.35;2.33;;;614.50;1382.40;;;;;;5108827;28;20095;-88
2021/05/23 08:24:32;;;;;;;5.75;2.33;;;614.60;1433.60;;;;;;5099735;28;20035;-87
2021/05/23 08:26:59;;;;;;;5.90;1.90;;;614.60;1356.80;;;;;;5105953;28;20504;-89
2021/05/23 08:29:28;;;;;;;8.43;2.13;;;614.60;1331.20;;;;;;5101998;28;20115;-89
2021/05/23 08:31:54;;;;;;;5.18;2.30;;;614.70;1408.00;;;;;;5108649;28;20468;-85
2021/05/23 08:34:20;;;;;;;6.72;2.63;;;614.80;1331.20;;;;;;5107587;28;20034;-84
2021/05/23 08:36:45;;;;;;;7.30;2.83;;;614.90;1331.20;;;;;;5101999;28;20497;-86
2021/05/23 08:39:11;;;;;;;7.43;2.35;;;614.90;1356.80;;;;;;5099320;28;20016;-88
2021/05/23 08:41:37;;;;;;;12.23;3.15;;;615.00;1331.20;;;;;;5105850;28;20030;-89
2021/05/23 08:44:03;;;;;;;5.88;2.45;;;615.20;1382.40;;;;;;5112020;28;20396;-87
2021/05/23 08:46:30;;;;;;;6.85;2.65;;;640.00;1305.60;;;;;;5108126;28;20019;-87
2021/05/23 08:48:57;;;;;;;5.57;2.20;;;640.10;1459.20;;;;;;5106133;28;20024;-89
2021/05/23 08:51:24;;;;;;;7.00;2.50;;;615.30;1228.80;;;;;;5102380;28;20548;-87
2021/05/23 08:53:50;;;;;;;6.00;2.42;;;615.20;1305.60;;;;;;5105271;28;20032;-88
2021/05/23 08:56:16;;;;;;;4.72;2.50;;;615.30;1305.60;;;;;;5113801;28;20032;-87
2021/05/23 08:58:41;;;;;;;6.95;2.53;;;640.00;1280.00;;;;;;5114188;28;20069;-88
2021/05/23 09:01:07;;;;;;;4.40;2.10;;;640.00;1228.80;;;;;;5112392;28;20023;-85
2021/05/23 09:03:33;;;;;;;6.22;2.58;;;640.10;1228.80;;;;;;5108153;28;20018;-85
2021/05/23 09:05:59;;;;;;;8.18;2.17;;;640.30;1280.00;;;;;;5114619;28;20426;-87
2021/05/23 09:08:28;;;;;;;11.15;2.58;;;640.40;1228.80;;;;;;5108159;28;20493;-87
2021/05/23 09:10:59;;;;;;;3.75;2.13;;;640.20;1203.20;;;;;;5113969;28;20032;-84
2021/05/23 09:13:35;;;;;;;8.93;1.92;;;640.30;1152.00;;;;;;5115353;28;20118;-86
2021/05/23 09:16:05;;;;;;;8.55;2.42;;;640.40;1203.20;;;;;;5104756;28;20036;-80
2021/05/23 09:18:42;;;;;;;5.53;2.40;;;640.60;1228.80;;;;;;5134120;28;20066;-84
2021/05/23 09:21:10;;;;;;;6.82;2.83;;;640.60;1177.60;;;;;;5137913;28;20012;-84
2021/05/23 09:23:49;;;;;;;4.50;2.55;;;640.70;1177.60;;;;;;5123574;28;20147;-86
2021/05/23 09:26:26;;;;;;;4.72;3.03;;;640.90;1254.40;;;;;;5098578;28;20417;-86
2021/05/23 09:28:53;;;;;;;6.65;2.65;;;665.60;1203.20;;;;;;5097007;28;20027;-81
2021/05/23 09:31:21;;;;;;;6.63;2.67;;;665.60;1203.20;;;;;;5113633;28;20042;-83
2021/05/23 09:33:51;;;;;;;4.72;2.83;;;665.80;1177.60;;;;;;5111037;28;20030;-80
2021/05/23 09:36:19;;;;;;;8.77;3.28;;;665.90;1100.80;;;;;;5115217;28;20035;-84
2021/05/23 09:38:58;;;;;;;7.80;2.80;;;666.00;1177.60;;;;;;5114065;28;20028;-85
2021/05/23 09:41:38;;;;;;;7.63;2.80;;;666.20;1152.00;;;;;;5113435;28;20035;-87
2021/05/23 09:44:22;;;;;;;5.32;2.60;;;666.20;1126.40;;;;;;5113926;28;20052;-83
2021/05/23 09:47:04;;;;;;;3.88;2.35;;;666.50;1049.60;;;;;;5114097;28;20027;-83
2021/05/23 09:49:40;;;;;;;6.20;2.28;;;691.20;1049.60;;;;;;5114185;28;20024;-87
2021/05/23 09:52:14;;;;;;;4.82;2.47;;;691.20;998.40;;;;;;5114550;28;20042;-86
2021/05/23 09:54:43;;;;;;;7.03;2.45;;;691.20;998.40;;;;;;5113781;28;20032;-85
2021/05/23 09:57:39;;;;;;;6.40;3.30;;;691.30;947.20;;;;;;5113815;28;20589;-85
2021/05/23 10:00:05;;;;;;;5.85;2.50;;;691.60;972.80;;;;;;5032734;28;20123;-85
2021/05/23 10:02:30;;;;;;;3.92;2.00;;;691.40;972.80;;;;;;5032396;28;20116;-89
2021/05/23 10:05:05;;;;;;;7.45;3.33;;;691.20;1024.00;;;;;;5031647;28;20112;-83
2021/05/23 10:07:35;;;;;;;5.63;2.47;;;691.30;998.40;;;;;;5003079;28;20209;-84
2021/05/23 10:10:02;;;;;;;5.80;3.45;;;691.70;1024.00;;;;;;5011578;28;20061;-83
2021/05/23 10:12:28;;;;;;;5.25;2.50;;;691.80;1075.20;;;;;;4995201;28;20113;-88
2021/05/23 10:14:54;;;;;;;3.80;2.00;;;691.80;1024.00;;;;;;5011535;28;20057;-88
2021/05/23 10:17:21;;;;;;;4.40;2.40;;;692.00;972.80;;;;;;4994244;28;20141;-85
2021/05/23 10:19:49;;;;;;;4.05;2.05;;;716.80;998.40;;;;;;5004386;28;20439;-85
2021/05/23 10:22:15;;;;;;;7.07;2.58;;;716.90;1075.20;;;;;;5002410;28;20388;-85
2021/05/23 10:24:51;;;;;;;8.25;2.60;;;716.80;1024.00;;;;;;5013743;28;20046;-84
2021/05/23 10:27:20;;;;;;;5.30;2.05;;;692.00;1024.00;;;;;;4995425;28;20022;-86
2021/05/23 10:29:52;;;;;;;5.50;3.05;;;691.90;998.40;;;;;;4995006;28;20038;-85
2021/05/23 10:32:21;;;;;;;5.00;2.88;;;692.10;1024.00;;;;;;4995907;28;20045;-86
2021/05/23 10:34:49;;;;;;;5.22;3.15;;;692.10;1024.00;;;;;;5011791;28;20072;-88
2021/05/23 10:37:18;;;;;;;4.40;2.33;;;716.80;1100.80;;;;;;5075523;28;20062;-84
2021/05/23 10:39:52;;;;;;;5.57;1.80;;;717.00;998.40;;;;;;5092232;28;20039;-86
2021/05/23 10:42:24;;;;;;;7.28;2.53;;;716.80;998.40;;;;;;5109539;28;20095;-86
2021/05/23 10:44:54;;;;;;;4.25;1.92;;;716.80;998.40;;;;;;5112594;28;20190;-87
2021/05/23 10:47:26;;;;;;;5.80;1.98;;;717.00;896.00;;;;;;5095960;28;20047;-81
2021/05/23 10:50:04;;;;;;;4.22;2.00;;;717.00;793.60;;;;;;5112270;28;20388;-82
2021/05/23 10:52:32;;;;;;;5.38;2.30;;;717.30;793.60;;;;;;5111978;28;20460;-83
2021/05/23 10:55:03;;;;;;;4.00;1.70;;;717.30;768.00;;;;;;5111674;28;20038;-83
2021/05/23 10:57:49;;;;;;;6.32;1.67;;;717.50;793.60;;;;;;5112210;28;20036;-86
2021/05/23 11:00:18;;;;;;;;;;;717.50;793.60;;;;;;5112735;28;20069;-84
2021/05/23 11:02:44;;;;;;;3.42;1.80;;;717.50;793.60;;;;;;5111985;28;19946;-84
2021/05/23 11:05:13;;;;;;;3.75;1.92;;;717.40;819.20;;;;;;5112056;28;20042;-79
2021/05/23 11:07:39;;;;;;;4.85;2.22;;;717.30;844.80;;;;;;5107081;28;20023;-82
2021/05/23 11:10:39;;;;;;;4.32;1.73;;;717.40;793.60;;;;;;5103173;28;20039;-83
2021/05/23 11:13:06;;;;;;;4.95;1.80;;;717.30;768.00;;;;;;5094588;28;20035;-84
2021/05/23 11:15:42;;;;;;;5.28;1.60;;;717.30;768.00;;;;;;5111963;28;20028;-83
2021/05/23 11:18:09;;;;;;;2.65;1.70;;;717.20;793.60;;;;;;5112292;28;20072;-86
2021/05/23 11:20:35;;;;;;;4.13;2.05;;;717.50;768.00;;;;;;5114300;28;20523;-84
2021/05/23 11:23:02;;;;;;;2.80;1.75;;;717.60;793.60;;;;;;5116558;28;20028;-86
2021/05/23 11:25:29;;;;;;;5.72;2.15;;;742.40;819.20;;;;;;5116371;28;20031;-87
2021/05/23 11:28:03;;;;;;;3.67;2.03;;;742.50;819.20;;;;;;5116825;28;20077;-87
2021/05/23 11:30:32;;;;;;;5.70;1.83;;;742.50;870.40;;;;;;5116020;28;20020;-86
2021/05/23 11:33:12;;;;;;;3.92;1.80;;;742.60;819.20;;;;;;5107418;28;20096;-87
2021/05/23 11:35:40;;;;;;;4.68;1.92;;;742.60;793.60;;;;;;5103909;28;20027;-87
2021/05/23 11:38:07;;;;;;;4.35;2.00;;;742.60;819.20;;;;;;5105124;28;20023;-88
2021/05/23 11:40:39;;;;;;;4.82;2.00;;;742.60;793.60;;;;;;5108020;28;20048;-87
2021/05/23 11:43:18;;;;;;;6.65;2.53;;;742.60;793.60;;;;;;5104322;28;20024;-87
2021/05/23 11:46:02;;;;;;;3.63;1.88;;;742.70;793.60;;;;;;5103884;28;20043;-86
2021/05/23 11:48:40;;;;;;;3.97;1.92;;;742.60;793.60;;;;;;5106187;28;20033;-87
2021/05/23 11:51:13;;;;;;;5.20;2.20;;;742.50;793.60;;;;;;5100672;28;20039;-87
2021/05/23 11:53:47;;;;;;;3.90;1.90;;;742.40;819.20;;;;;;5097531;28;20035;-88
2021/05/23 11:56:28;;;;;;;3.00;1.95;;;717.70;819.20;;;;;;5096021;28;20039;-89
2021/05/23 11:58:57;;;;;;;3.80;1.90;;;717.70;844.80;;;;;;5096756;28;20020;-88
2021/05/23 12:01:30;;;;;;;3.35;1.80;;;742.40;819.20;;;;;;5096023;28;20047;-88
2021/05/23 12:04:08;;;;;;;4.63;1.70;;;742.60;819.20;;;;;;5095307;28;20053;-83
2021/05/23 12:06:38;;;;;;;3.25;1.55;;;742.60;819.20;;;;;;5095719;28;20024;-86
2021/05/23 12:09:13;;;;;;;5.97;1.85;;;742.70;819.20;;;;;;5095417;28;20023;-87
2021/05/23 12:11:41;;;;;;;4.55;1.83;;;742.90;793.60;;;;;;5095403;28;20032;-86
2021/05/23 12:14:36;;;;;;;4.68;1.80;;;742.90;768.00;;;;;;5095201;28;20069;-87
2021/05/23 12:17:06;;;;;;;4.65;1.70;;;742.90;768.00;;;;;;5095277;28;20028;-88
2021/05/23 12:19:59;;;;;;;4.22;1.60;;;743.00;819.20;;;;;;5095304;28;20409;-86
2021/05/23 12:22:24;;;;;;;6.68;1.60;;;743.00;793.60;;;;;;5095663;28;20028;-85
2021/05/23 12:25:00;;;;;;;3.42;1.63;;;743.00;793.60;;;;;;5115627;28;20039;-86